Sunday, January 20, 2019, 1:42 AM GMT
Back to Local

CYQI, Yarmouth, N. S.

Location: , , Canada Lat: 43.833
Local Time: 1:42 AM GMT ( 1:42 GMT) Lon: -66.083
Time Zone: GMT Elev: 141 ft

Show me the last for .
Show Decoded

2019-01-20 01:00 METAR CYQI 200100Z 05009KT 15SM FEW140 OVC170 M10/M17 A3033 RMK AC2AS6 SLP274 =
2019-01-20 00:00 METAR CYQI 200000Z 03010KT 15SM FEW100 OVC160 M09/M17 A3035 RMK AC2AS6 SLP282 =
2019-01-19 23:00 METAR CYQI 192300Z 02009KT 15SM SCT110 BKN160 BKN250 M09/M16 A3033 RMK AC3AC3CI1
                 SLP276 =
2019-01-19 22:00 METAR CYQI 192200Z 02010KT 15SM FEW030 BKN170 BKN250 M09/M16 A3031 RMK SC1AC5CI2
                 SC TR SLP269 =
2019-01-19 21:00 METAR CYQI 192100Z 04008KT 15SM FEW030 SCT140 SCT190 OVC250 M08/M16 A3030 RMK
                 SC1AC3AC1CI4 SC TR SLP263 =
2019-01-19 20:00 METAR CYQI 192000Z 01011KT 15SM FEW030 FEW190 BKN250 M07/M15 A3028 RMK SC1AC2CI5
                 SC TR SLP256 =
2019-01-19 19:00 METAR CYQI 191900Z 36011KT 15SM FEW030 FEW190 BKN250 M06/M14 A3027 RMK SC1AC2CI5
                 SC TR SLP255 =
2019-01-19 18:00 METAR CYQI 191800Z 01010G16KT 15SM FEW030 BKN250 M05/M14 A3027 RMK SC1CI6 SC TR
                 SLP254 =
2019-01-19 17:00 METAR CYQI 191700Z 35014KT 15SM FEW030 SCT250 M05/M13 A3026 RMK SC1CI4 SC TR
                 SLP250 =
2019-01-19 16:00 METAR CYQI 191600Z 35009G16KT 15SM FEW030 BKN250 M05/M12 A3028 RMK SC1CI5 SC TR
                 SLP258 =
2019-01-19 15:00 METAR CYQI 191500Z 36013G18KT 15SM FEW030 BKN250 M05/M12 A3027 RMK SC1CI6 SC TR
                 SLP254 =
2019-01-19 14:00 METAR CYQI 191400Z 36014G19KT 15SM SCT028 BKN250 M05/M11 A3023 RMK SC3CI2 SLP242
                 =
2019-01-19 13:00 METAR CYQI 191300Z 35013KT 15SM FEW040 FEW250 M05/M11 A3020 RMK SC1CI2 SC TR
                 SLP231 =
2019-01-19 12:00 METAR CYQI 191200Z 34018G29KT 15SM FEW045 SCT250 M05/M14 A3017 RMK SC1CI3 PRESRR
                 SLP222 =
2019-01-19 11:00 METAR CYQI 191100Z 34021G30KT 15SM FEW040 M04/M13 A3015 RMK SC2 SLP213 =
2019-01-19 10:00 METAR CYQI 191000Z 35018KT 12SM BKN029 M03/M08 A3012 RMK SC6 SLP203 =
2019-01-19 09:00 METAR CYQI 190900Z 35016G27KT 8SM OVC045 M01/M06 A3009 RMK SC8 SLP191 =
2019-01-19 08:00 METAR CYQI 190800Z 34016G23KT 4SM BR OVC035 M00/M05 A3005 RMK SC8 SLP180 =
2019-01-19 06:00 METAR CYQI 190600Z 22004KT 3SM BR OVC020 M01/M01 A3000 RMK SC8 SLP164 =
2019-01-19 05:00 METAR CYQI 190500Z 19004KT 2SM BR VV004 M00/M01 A3001 RMK FG8 SLP165 =
2019-01-19 04:41 METAR CYQI 190441Z 24003KT 2SM BR VV004 M01/M01 A3002 RMK FG8 SLP168 =
2019-01-19 04:00 METAR CYQI 190400Z 00000KT 2SM -SHSN VV004 M01/M01 A3002 RMK SN8 CVCTV CLD EMBD
                 SLP168 =
2019-01-19 03:00 METAR CYQI 190300Z 33005KT 3SM BR OVC004 M01/M02 A3002 RMK SF8 SLP170 =
2019-01-19 02:11 METAR CYQI 190211Z VRB02KT 3SM BR OVC004 M02/M03 A2999 RMK SF8 SLP160 =
2019-01-19 02:00 METAR CYQI 190200Z 12004KT 3SM -SHSN VV006 M02/M03 A2999 RMK SN8 CVCTV CLD EMBD
                 SLP161 =

Support USWX by starting your Amazon purchase here.